Itapaci, Brazil
Current Conditions -  °F | °C
As of 5:00 PM on Friday 21 Nov 2014 (Local Time) from SBAN Reporting Station
Broken Clouds Broken Clouds  
Wind Chill: 86°   Ceiling: 3500
Heat Index: 86°   Visibility: 6mi
Dew Point: 59°   Wind: 3mph
Humidity: 40%   Direction: 330°NNW
Pressure: 30"   Gusts: NA
Location:  14.95°S, 49.55°W
Report Text: SBAN 211900Z 33003KT 9999 BKN035 FEW040TCU 30/15 Q1016
Loading
Personal Weather Stations






























Interactive Weather Map New forecast layout! Learn more

10-Day Weather Forecast

Advertisements
Track Severe Weather on mobile